D25

Manitowish Waters Airport

Manitowish Waters, Wisconsin, USA
METAR KD25 220315Z AUTO 25003KT 10SM CLR 05/05 A3028 RMK AO2 T00470047
Observed Flight Rules
Sep-22 @ 03:15 UTC (11 minutes ago) Visual Flight Rules
Wind Visibility Clouds
250° at 3 knots 10 miles
Temperatures Readings
Current 5°C / 41°F
Dewpoint 5°C / 41°F
Humidity 100%
Altimeter 30.28" Hg
Pressure 1025 hPa
Elevation 491
METAR KD25 220315Z AUTO 25003KT 10SM CLR 05/05 A3028 RMK AO2 T00470047
Observed Flight Rules
Sep-22 @ 03:15 UTC
(11 minutes ago)
VFR
Wind Visibility
250° at 3 knots 10 miles
Clouds
Temperature Dewpoint
5°C / 41°F 5°C / 41°F
Humidity Altimeter Pressure
100% 30.28" Hg 1025 hPa